createdAt,value
2023-09-08T00:00:49.942Z,19.40
2023-09-08T00:03:22.875Z,19.35
2023-09-08T00:05:51.843Z,19.44
2023-09-08T00:08:20.938Z,19.57
2023-09-08T00:10:53.750Z,19.44
2023-09-08T00:13:22.598Z,19.38
2023-09-08T00:15:51.364Z,19.41
2023-09-08T00:18:19.262Z,19.21
2023-09-08T00:20:47.221Z,19.25
2023-09-08T00:23:18.047Z,19.42
2023-09-08T00:25:45.876Z,19.43
2023-09-08T00:28:15.451Z,19.41
2023-09-08T00:30:43.964Z,19.33
2023-09-08T00:33:15.206Z,19.40
2023-09-08T00:35:49.481Z,19.13
2023-09-08T00:38:17.634Z,19.12
2023-09-08T00:40:46.602Z,19.06
2023-09-08T00:43:15.762Z,19.26
2023-09-08T00:45:45.634Z,19.13
2023-09-08T00:48:14.599Z,18.95
2023-09-08T00:50:43.531Z,18.92
2023-09-08T00:53:14.987Z,19.00
2023-09-08T00:55:43.366Z,19.11
2023-09-08T00:58:13.268Z,19.04
2023-09-08T01:00:42.670Z,19.21
2023-09-08T01:03:11.570Z,19.05
2023-09-08T01:05:42.484Z,18.72
2023-09-08T01:08:12.062Z,18.63
2023-09-08T01:10:42.294Z,18.68
2023-09-08T01:13:10.813Z,18.74
2023-09-08T01:15:38.755Z,18.71
2023-09-08T01:18:09.773Z,18.68
2023-09-08T01:20:50.919Z,18.90
2023-09-08T01:23:23.409Z,18.77
2023-09-08T01:26:00.152Z,18.73
2023-09-08T01:28:31.339Z,18.68
2023-09-08T01:31:01.924Z,18.64
2023-09-08T01:33:30.767Z,18.75
2023-09-08T01:36:00.956Z,18.52
2023-09-08T01:38:30.250Z,18.54
2023-09-08T01:40:59.898Z,18.47
2023-09-08T01:43:27.869Z,18.81
2023-09-08T01:46:00.075Z,18.81
2023-09-08T01:48:29.430Z,18.86
2023-09-08T01:50:58.913Z,18.71
2023-09-08T01:53:27.193Z,18.76
2023-09-08T01:55:55.487Z,18.75
2023-09-08T01:58:25.226Z,18.74
2023-09-08T02:00:53.699Z,18.22
2023-09-08T02:03:21.747Z,18.16
2023-09-08T02:05:49.813Z,17.80
2023-09-08T02:08:17.962Z,18.34
2023-09-08T02:10:45.820Z,18.20
2023-09-08T02:13:16.041Z,18.29
2023-09-08T02:15:46.195Z,18.25
2023-09-08T02:18:14.636Z,18.39
2023-09-08T02:20:44.057Z,18.28
2023-09-08T02:23:20.328Z,18.35
2023-09-08T02:25:49.222Z,18.51
2023-09-08T02:28:18.120Z,18.44
2023-09-08T02:30:48.842Z,18.24
2023-09-08T02:33:17.579Z,18.22
2023-09-08T02:35:50.007Z,18.05
2023-09-08T02:38:19.606Z,18.22
2023-09-08T02:40:49.594Z,18.29
2023-09-08T02:43:19.842Z,18.36
2023-09-08T02:45:50.837Z,18.13
2023-09-08T02:48:18.981Z,18.12
2023-09-08T02:50:48.349Z,18.23
2023-09-08T02:53:17.904Z,18.02
2023-09-08T02:55:48.724Z,18.24
2023-09-08T02:58:19.050Z,18.24
2023-09-08T03:00:47.184Z,18.20
2023-09-08T03:03:16.984Z,18.03
2023-09-08T03:05:48.054Z,17.89
2023-09-08T03:08:17.618Z,18.05
2023-09-08T03:10:49.473Z,18.02
2023-09-08T03:13:18.201Z,18.15
2023-09-08T03:15:48.535Z,18.19
2023-09-08T03:18:19.223Z,17.95
2023-09-08T03:20:50.728Z,17.73
2023-09-08T03:23:19.011Z,17.99
2023-09-08T03:25:49.987Z,17.93
2023-09-08T03:28:18.169Z,17.82
2023-09-08T03:30:50.606Z,17.67
2023-09-08T03:33:21.674Z,17.82
2023-09-08T03:35:49.573Z,17.92
2023-09-08T03:38:19.838Z,17.59
2023-09-08T03:40:48.998Z,17.80
2023-09-08T03:43:17.199Z,17.67
2023-09-08T03:45:46.244Z,17.84
2023-09-08T03:48:15.031Z,17.63
2023-09-08T03:50:51.657Z,17.42
2023-09-08T03:53:22.611Z,17.63
2023-09-08T03:55:51.182Z,17.59
2023-09-08T03:58:20.165Z,17.65
2023-09-08T04:00:58.882Z,17.64
2023-09-08T04:03:27.857Z,17.86
2023-09-08T04:05:57.782Z,17.81
2023-09-08T04:08:27.083Z,17.78
2023-09-08T04:11:03.710Z,17.91
2023-09-08T04:13:33.824Z,17.92
2023-09-08T04:16:04.771Z,17.74
2023-09-08T04:18:36.198Z,17.78
2023-09-08T04:21:08.985Z,17.79
2023-09-08T04:23:37.412Z,17.82
2023-09-08T04:26:05.673Z,17.88
2023-09-08T04:28:33.605Z,17.76
2023-09-08T04:31:01.786Z,17.70
2023-09-08T04:33:31.310Z,17.79
2023-09-08T04:35:59.478Z,17.88
2023-09-08T04:38:28.904Z,17.89
2023-09-08T04:40:56.733Z,17.85
2023-09-08T04:43:31.268Z,17.30
2023-09-08T04:45:59.760Z,17.41
2023-09-08T04:48:31.154Z,17.60
2023-09-08T04:51:03.576Z,17.85
2023-09-08T04:53:36.292Z,17.42
2023-09-08T04:56:04.640Z,17.37
2023-09-08T04:58:33.393Z,17.52
2023-09-08T05:01:01.685Z,17.48
2023-09-08T05:03:31.991Z,17.46
2023-09-08T05:06:06.336Z,17.52
2023-09-08T05:08:36.409Z,17.74
2023-09-08T05:11:05.669Z,17.68
2023-09-08T05:13:36.789Z,17.82
2023-09-08T05:16:12.799Z,17.78
2023-09-08T05:18:41.237Z,17.85
2023-09-08T05:21:13.837Z,18.04
2023-09-08T05:23:44.262Z,18.09
2023-09-08T05:26:15.008Z,17.98
2023-09-08T05:28:45.330Z,17.91
2023-09-08T05:31:13.815Z,17.84
2023-09-08T05:33:43.012Z,18.02
2023-09-08T05:36:12.839Z,18.47
2023-09-08T05:38:44.610Z,18.64
2023-09-08T05:41:17.240Z,18.29
2023-09-08T05:43:46.850Z,18.51
2023-09-08T05:46:14.940Z,18.60
2023-09-08T05:48:44.328Z,18.77
2023-09-08T05:51:12.525Z,19.02
2023-09-08T05:53:41.953Z,19.24
2023-09-08T05:56:13.666Z,19.28
2023-09-08T05:58:41.578Z,19.16
2023-09-08T06:01:09.954Z,19.38
2023-09-08T06:03:39.460Z,19.36
2023-09-08T06:06:07.980Z,19.34
2023-09-08T06:08:36.431Z,19.58
2023-09-08T06:11:04.895Z,19.68
2023-09-08T06:13:34.424Z,20.25
2023-09-08T06:16:03.460Z,20.60
2023-09-08T06:18:32.935Z,20.37
2023-09-08T06:21:01.697Z,20.67
2023-09-08T06:23:31.441Z,20.67
2023-09-08T06:26:01.346Z,21.00
2023-09-08T06:28:29.771Z,21.14
2023-09-08T06:31:03.464Z,21.34
2023-09-08T06:33:31.420Z,21.36
2023-09-08T06:36:00.817Z,21.48
2023-09-08T06:38:32.326Z,21.58
2023-09-08T06:41:02.175Z,21.34
2023-09-08T06:43:30.502Z,21.64
2023-09-08T06:45:59.233Z,21.68
2023-09-08T06:48:29.283Z,21.73
2023-09-08T06:50:58.101Z,21.70
2023-09-08T06:53:26.294Z,21.71
2023-09-08T06:55:57.367Z,21.80
2023-09-08T06:58:25.500Z,21.90
2023-09-08T07:00:55.850Z,22.03
2023-09-08T07:03:24.880Z,22.35
2023-09-08T07:05:59.466Z,22.21
2023-09-08T07:08:29.262Z,22.24
2023-09-08T07:10:59.008Z,22.14
2023-09-08T07:13:28.200Z,22.20
2023-09-08T07:15:58.969Z,22.39
2023-09-08T07:18:27.926Z,22.50
2023-09-08T07:20:57.497Z,22.64
2023-09-08T07:23:27.917Z,22.58
2023-09-08T07:25:57.323Z,22.57
2023-09-08T07:28:28.353Z,23.02
2023-09-08T07:31:06.817Z,22.92
2023-09-08T07:33:36.335Z,23.00
2023-09-08T07:36:10.639Z,22.93
2023-09-08T07:38:39.130Z,23.48
2023-09-08T07:41:07.562Z,23.50
2023-09-08T07:43:41.524Z,23.43
2023-09-08T07:46:09.721Z,23.10
2023-09-08T07:48:38.263Z,23.42
2023-09-08T07:51:08.261Z,23.87
2023-09-08T07:53:37.679Z,23.73
2023-09-08T07:56:06.488Z,23.83
2023-09-08T07:58:36.151Z,24.23
2023-09-08T08:01:04.751Z,24.46
2023-09-08T08:03:33.478Z,24.97
2023-09-08T08:06:02.420Z,24.96
2023-09-08T08:08:32.458Z,24.63
2023-09-08T08:11:02.617Z,24.57
2023-09-08T08:13:34.439Z,24.54
2023-09-08T08:16:03.560Z,24.61
2023-09-08T08:18:32.010Z,24.41
2023-09-08T08:21:04.795Z,24.37
2023-09-08T08:23:35.246Z,24.70
2023-09-08T08:26:05.522Z,24.76
2023-09-08T08:28:33.790Z,24.50
2023-09-08T08:31:03.729Z,24.62
2023-09-08T08:33:34.617Z,25.15
2023-09-08T08:36:04.987Z,25.21
2023-09-08T08:38:39.720Z,25.11
2023-09-08T08:41:08.660Z,24.65
2023-09-08T08:43:38.056Z,24.99
2023-09-08T08:46:11.669Z,25.25
2023-09-08T08:48:41.318Z,25.83
2023-09-08T08:51:11.498Z,25.68
2023-09-08T08:53:43.712Z,26.05
2023-09-08T08:56:15.106Z,25.96
2023-09-08T08:58:44.556Z,26.37
2023-09-08T09:01:17.260Z,26.19
2023-09-08T09:03:46.518Z,26.45
2023-09-08T09:06:15.798Z,26.30
2023-09-08T09:08:51.644Z,26.40
2023-09-08T09:11:22.330Z,26.52
2023-09-08T09:13:50.254Z,26.53
2023-09-08T09:16:18.202Z,26.89
2023-09-08T09:19:08.227Z,27.07
2023-09-08T09:21:48.533Z,27.22
2023-09-08T09:24:20.952Z,27.31
2023-09-08T09:26:55.315Z,27.18
2023-09-08T09:29:24.350Z,27.50
2023-09-08T09:31:55.306Z,27.14
2023-09-08T09:34:24.278Z,27.55
2023-09-08T09:36:53.327Z,27.34
2023-09-08T09:39:30.061Z,26.76
2023-09-08T09:42:01.145Z,27.20
2023-09-08T09:44:30.221Z,27.48
2023-09-08T09:47:00.395Z,27.64
2023-09-08T09:49:33.197Z,27.83
2023-09-08T09:52:01.724Z,27.99
2023-09-08T09:54:31.850Z,27.39
2023-09-08T09:57:04.665Z,27.80
2023-09-08T09:59:35.584Z,28.06
2023-09-08T10:02:04.150Z,28.37
2023-09-08T10:07:28.023Z,28.16
2023-09-08T10:09:59.022Z,28.29
2023-09-08T10:12:38.222Z,27.83
2023-09-08T10:15:09.134Z,27.85
2023-09-08T10:17:40.694Z,27.78
2023-09-08T10:20:12.580Z,28.33
2023-09-08T10:22:43.621Z,28.20
2023-09-08T10:25:17.050Z,28.38
2023-09-08T10:27:51.681Z,28.65
2023-09-08T10:30:23.767Z,28.83
2023-09-08T10:32:54.534Z,28.92
2023-09-08T10:35:26.184Z,29.05
2023-09-08T10:38:29.321Z,28.73
2023-09-08T10:41:33.646Z,28.65
2023-09-08T10:44:10.374Z,28.45
2023-09-08T10:46:39.580Z,27.92
2023-09-08T10:49:11.376Z,28.38
2023-09-08T10:51:40.971Z,28.99
2023-09-08T10:54:11.638Z,29.07
2023-09-08T11:42:17.372Z,29.71
2023-09-08T11:45:02.744Z,29.74
2023-09-08T11:47:37.470Z,29.53
2023-09-08T11:56:29.872Z,29.96
2023-09-08T11:59:17.498Z,29.55
2023-09-08T12:05:24.072Z,30.29
2023-09-08T12:08:14.002Z,30.16
2023-09-08T12:13:52.303Z,30.08
2023-09-08T12:16:21.899Z,30.39
2023-09-08T12:18:52.818Z,30.25
2023-09-08T12:21:23.119Z,30.14
2023-09-08T12:23:51.855Z,30.03
2023-09-08T12:26:20.704Z,30.30
2023-09-08T12:28:53.291Z,30.52
2023-09-08T12:31:30.207Z,30.08
2023-09-08T12:33:59.822Z,30.18
2023-09-08T12:36:27.939Z,30.08
2023-09-08T12:39:01.689Z,30.50
2023-09-08T12:41:29.736Z,30.29
2023-09-08T12:43:59.540Z,30.43
2023-09-08T12:46:28.392Z,30.46
2023-09-08T12:48:58.972Z,30.99
2023-09-08T13:09:52.179Z,31.63
2023-09-08T14:15:10.117Z,34.60
2023-09-08T14:17:38.085Z,36.21
2023-09-08T14:20:13.944Z,35.82
2023-09-08T14:22:46.114Z,38.31
2023-09-08T14:25:47.340Z,38.15
2023-09-08T14:28:16.881Z,36.94
2023-09-08T14:30:47.995Z,38.69
2023-09-08T14:33:17.179Z,39.45
2023-09-08T14:35:47.120Z,39.45
2023-09-08T14:38:19.433Z,39.33
2023-09-08T14:40:56.773Z,39.72
2023-09-08T14:43:31.470Z,41.97
2023-09-08T14:46:04.138Z,44.05
2023-09-08T14:48:33.768Z,43.05
2023-09-08T14:51:03.477Z,44.23
2023-09-08T14:53:37.487Z,43.20
2023-09-08T14:56:11.911Z,42.78
2023-09-08T14:58:42.212Z,39.60
2023-09-08T15:01:10.233Z,41.64
2023-09-08T15:03:41.496Z,42.47
2023-09-08T15:06:13.618Z,40.15
2023-09-08T15:08:46.726Z,38.91
2023-09-08T15:11:16.458Z,40.47
2023-09-08T15:13:44.404Z,42.12
2023-09-08T15:16:15.857Z,43.48
2023-09-08T15:18:44.419Z,43.34
2023-09-08T15:21:13.163Z,42.06
2023-09-08T15:23:43.588Z,41.14
2023-09-08T15:26:13.732Z,41.74
2023-09-08T15:28:43.343Z,39.26
2023-09-08T15:31:12.147Z,38.87
2023-09-08T15:33:40.456Z,36.99
2023-09-08T15:36:09.454Z,36.06
2023-09-08T15:41:23.330Z,34.40
2023-09-08T15:43:58.105Z,34.19
2023-09-08T15:46:28.578Z,34.03
2023-09-08T15:48:57.981Z,33.53
2023-09-08T15:51:27.546Z,32.54
2023-09-08T15:53:57.241Z,32.57
2023-09-08T15:56:29.747Z,32.08
2023-09-08T15:59:02.230Z,31.74
2023-09-08T16:01:30.297Z,31.81
2023-09-08T16:04:00.062Z,31.94
2023-09-08T16:06:29.982Z,31.85
2023-09-08T16:08:59.272Z,31.34
2023-09-08T16:11:31.003Z,31.51
2023-09-08T16:14:01.003Z,31.46
2023-09-08T16:16:31.008Z,31.26
2023-09-08T16:19:00.913Z,30.95
2023-09-08T16:21:30.253Z,31.04
2023-09-08T16:23:58.545Z,31.15
2023-09-08T16:26:29.824Z,31.20
2023-09-08T16:29:02.687Z,31.18
2023-09-08T16:31:31.198Z,31.20
2023-09-08T16:33:59.662Z,31.02
2023-09-08T16:36:30.817Z,31.01
2023-09-08T16:39:10.895Z,31.04
2023-09-08T16:41:40.402Z,30.94
2023-09-08T16:44:14.680Z,30.95
2023-09-08T16:46:44.504Z,30.70
2023-09-08T16:49:15.868Z,30.36
2023-09-08T16:51:43.999Z,30.59
2023-09-08T16:54:14.675Z,30.71
2023-09-08T16:56:45.656Z,30.86
2023-09-08T16:59:22.049Z,30.42
2023-09-08T17:01:51.785Z,30.23
2023-09-08T17:04:20.267Z,30.24
2023-09-08T17:06:50.167Z,30.07
2023-09-08T17:09:23.852Z,29.96
2023-09-08T17:11:52.426Z,29.91
2023-09-08T17:14:23.592Z,29.96
2023-09-08T17:16:53.193Z,29.92
2023-09-08T17:19:22.900Z,29.80
2023-09-08T17:21:53.213Z,29.71
2023-09-08T17:24:22.581Z,29.53
2023-09-08T17:26:54.897Z,29.59
2023-09-08T17:29:26.679Z,29.47
2023-09-08T17:31:55.959Z,29.31
2023-09-08T17:34:24.160Z,29.17
2023-09-08T17:36:57.214Z,28.97
2023-09-08T17:39:27.018Z,28.78
2023-09-08T17:41:57.457Z,28.55
2023-09-08T17:44:28.699Z,28.28
2023-09-08T17:47:03.752Z,28.19
2023-09-08T17:49:32.490Z,27.88
2023-09-08T17:52:04.685Z,27.74
2023-09-08T17:54:35.066Z,27.43
2023-09-08T17:57:03.377Z,27.09
2023-09-08T17:59:33.484Z,27.34
2023-09-08T18:02:01.941Z,27.11
2023-09-08T18:04:33.454Z,27.14
2023-09-08T18:07:01.516Z,27.05
2023-09-08T18:09:30.017Z,27.06
2023-09-08T18:11:59.764Z,26.93
2023-09-08T18:14:33.766Z,26.79
2023-09-08T18:17:05.829Z,26.58
2023-09-08T18:19:36.849Z,26.66
2023-09-08T18:22:07.579Z,26.39
2023-09-08T18:24:36.187Z,26.08
2023-09-08T18:27:06.059Z,26.03
2023-09-08T18:29:35.938Z,25.89
2023-09-08T18:32:06.024Z,26.27
2023-09-08T18:34:36.759Z,26.35
2023-09-08T18:37:05.331Z,26.21
2023-09-08T18:39:34.515Z,26.12
2023-09-08T18:42:02.986Z,26.04
2023-09-08T18:44:31.488Z,25.80
2023-09-08T18:47:03.534Z,25.72
2023-09-08T18:49:31.990Z,25.78
2023-09-08T18:52:03.608Z,25.79
2023-09-08T18:54:35.148Z,25.68
2023-09-08T18:57:09.045Z,25.69
2023-09-08T18:59:45.372Z,25.45
2023-09-08T19:02:15.110Z,25.10
2023-09-08T19:04:43.424Z,25.35
2023-09-08T19:07:12.850Z,25.42
2023-09-08T19:09:42.308Z,25.11
2023-09-08T19:12:12.702Z,25.28
2023-09-08T19:14:40.647Z,25.38
2023-09-08T19:17:09.345Z,25.16
2023-09-08T19:19:38.832Z,25.03
2023-09-08T19:22:11.449Z,24.79
2023-09-08T19:24:39.572Z,24.49
2023-09-08T19:27:08.309Z,24.72
2023-09-08T19:29:36.660Z,24.55
2023-09-08T19:32:04.934Z,24.43
2023-09-08T19:34:39.680Z,24.22
2023-09-08T19:37:09.070Z,24.29
2023-09-08T19:39:38.448Z,24.26
2023-09-08T19:42:07.602Z,24.21
2023-09-08T19:44:41.392Z,23.86
2023-09-08T19:47:16.126Z,23.74
2023-09-08T19:49:51.852Z,23.81
2023-09-08T19:52:20.569Z,23.69
2023-09-08T19:54:49.410Z,23.74
2023-09-08T19:57:17.858Z,23.60
2023-09-08T19:59:48.357Z,23.55
2023-09-08T20:02:17.142Z,23.57
2023-09-08T20:04:54.300Z,23.47
2023-09-08T20:07:22.634Z,23.20
2023-09-08T20:09:52.450Z,23.20
2023-09-08T20:12:25.164Z,23.06
2023-09-08T20:14:57.067Z,22.76
2023-09-08T20:17:28.800Z,22.82
2023-09-08T20:20:06.826Z,22.65
2023-09-08T20:22:40.481Z,23.12
2023-09-08T20:25:13.671Z,23.07
2023-09-08T20:27:45.671Z,22.72
2023-09-08T20:30:16.556Z,22.80
2023-09-08T20:32:52.441Z,22.83
2023-09-08T20:35:23.827Z,22.67
2023-09-08T20:37:54.376Z,22.64
2023-09-08T20:40:23.171Z,22.60
2023-09-08T20:42:51.653Z,22.51
2023-09-08T20:45:21.441Z,22.48
2023-09-08T20:48:02.492Z,22.70
2023-09-08T20:50:32.268Z,22.73
2023-09-08T20:53:07.969Z,22.36
2023-09-08T20:56:00.326Z,22.38
2023-09-08T20:58:49.072Z,22.11
2023-09-08T21:01:17.661Z,21.89
2023-09-08T21:03:49.345Z,22.19
2023-09-08T21:06:27.076Z,22.10
2023-09-08T21:09:06.381Z,22.23
2023-09-08T21:11:34.498Z,22.19
2023-09-08T21:14:02.879Z,21.97
2023-09-08T21:16:31.174Z,22.07
2023-09-08T21:19:00.363Z,21.89
2023-09-08T21:21:30.549Z,21.66
2023-09-08T21:23:58.825Z,21.76
2023-09-08T21:26:26.979Z,21.64
2023-09-08T21:28:55.623Z,21.50
2023-09-08T21:31:24.240Z,21.28
2023-09-08T21:33:54.932Z,21.54
2023-09-08T21:36:23.261Z,21.38
2023-09-08T21:38:56.981Z,21.34
2023-09-08T21:41:27.472Z,21.45
2023-09-08T21:43:59.066Z,21.49
2023-09-08T21:46:27.188Z,21.40
2023-09-08T21:48:56.690Z,21.39
2023-09-08T21:51:27.685Z,21.36
2023-09-08T21:53:58.042Z,21.33
2023-09-08T21:56:26.566Z,21.22
2023-09-08T22:01:53.961Z,21.28
2023-09-08T22:04:36.326Z,21.16
2023-09-08T22:07:04.826Z,21.05
2023-09-08T22:09:34.021Z,20.85
2023-09-08T22:12:04.167Z,20.86
2023-09-08T22:14:37.035Z,20.74
2023-09-08T22:17:06.481Z,20.43
2023-09-08T22:19:35.774Z,20.72
2023-09-08T22:22:11.445Z,20.81
2023-09-08T22:24:43.702Z,20.80
2023-09-08T22:27:12.590Z,20.53
2023-09-08T22:29:42.364Z,20.69
2023-09-08T22:32:10.311Z,20.72
2023-09-08T22:34:40.047Z,20.75
2023-09-08T22:37:10.070Z,20.83
2023-09-08T22:39:39.370Z,20.84
2023-09-08T22:42:09.549Z,20.61
2023-09-08T22:44:37.449Z,20.77
2023-09-08T22:47:12.031Z,20.70
2023-09-08T22:49:59.763Z,20.64
2023-09-08T22:52:29.219Z,20.41
2023-09-08T22:55:05.763Z,20.58
2023-09-08T22:57:44.440Z,20.51
2023-09-08T23:00:14.222Z,20.33
2023-09-08T23:02:44.009Z,20.16
2023-09-08T23:05:12.619Z,20.57
2023-09-08T23:07:41.391Z,20.67
2023-09-08T23:10:11.322Z,20.75
2023-09-08T23:12:39.446Z,20.71
2023-09-08T23:15:11.486Z,20.67
2023-09-08T23:17:39.932Z,20.47
2023-09-08T23:20:09.182Z,20.45
2023-09-08T23:22:40.923Z,20.44
2023-09-08T23:25:11.182Z,20.29
2023-09-08T23:27:42.700Z,20.15
2023-09-08T23:30:13.680Z,20.28
2023-09-08T23:32:45.749Z,20.26
2023-09-08T23:35:20.004Z,20.03
2023-09-08T23:37:53.196Z,20.25
2023-09-08T23:40:22.369Z,20.33
2023-09-08T23:42:50.841Z,20.30
2023-09-08T23:45:20.576Z,20.26
2023-09-08T23:47:49.823Z,20.20
2023-09-08T23:50:18.814Z,20.18
2023-09-08T23:52:47.760Z,20.09
2023-09-08T23:55:16.930Z,20.01
2023-09-08T23:57:46.029Z,20.20
